sensor_id;sensor_type;location;lat;lon;timestamp;temperature;humidity
75615;DHT22;64199;48.578;-4.520;2023-10-31T00:01:56;24.00;58.00
75615;DHT22;64199;48.578;-4.520;2023-10-31T00:04:21;23.90;57.90
75615;DHT22;64199;48.578;-4.520;2023-10-31T00:06:47;23.90;57.90
75615;DHT22;64199;48.578;-4.520;2023-10-31T00:09:12;23.90;57.90
75615;DHT22;64199;48.578;-4.520;2023-10-31T00:11:39;23.90;57.90
75615;DHT22;64199;48.578;-4.520;2023-10-31T00:14:06;23.80;57.80
75615;DHT22;64199;48.578;-4.520;2023-10-31T00:16:32;23.80;57.80
75615;DHT22;64199;48.578;-4.520;2023-10-31T00:18:58;23.80;57.80
75615;DHT22;64199;48.578;-4.520;2023-10-31T00:21:23;23.80;57.80
75615;DHT22;64199;48.578;-4.520;2023-10-31T00:23:49;23.80;57.80
75615;DHT22;64199;48.578;-4.520;2023-10-31T00:26:15;23.80;57.80
75615;DHT22;64199;48.578;-4.520;2023-10-31T00:28:41;23.70;57.70
75615;DHT22;64199;48.578;-4.520;2023-10-31T00:31:07;23.70;57.70
75615;DHT22;64199;48.578;-4.520;2023-10-31T00:33:34;23.70;57.70
75615;DHT22;64199;48.578;-4.520;2023-10-31T00:35:59;23.60;57.70
75615;DHT22;64199;48.578;-4.520;2023-10-31T00:38:25;23.60;57.60
75615;DHT22;64199;48.578;-4.520;2023-10-31T00:40:51;23.60;57.70
75615;DHT22;64199;48.578;-4.520;2023-10-31T00:43:16;23.50;57.60
75615;DHT22;64199;48.578;-4.520;2023-10-31T00:45:42;23.60;57.70
75615;DHT22;64199;48.578;-4.520;2023-10-31T00:48:08;23.50;57.60
75615;DHT22;64199;48.578;-4.520;2023-10-31T00:50:33;23.50;57.60
75615;DHT22;64199;48.578;-4.520;2023-10-31T00:52:59;23.50;57.60
75615;DHT22;64199;48.578;-4.520;2023-10-31T00:55:24;23.40;57.50
75615;DHT22;64199;48.578;-4.520;2023-10-31T00:57:50;23.40;57.40
75615;DHT22;64199;48.578;-4.520;2023-10-31T01:00:16;23.40;57.40
75615;DHT22;64199;48.578;-4.520;2023-10-31T01:02:42;23.30;57.20
75615;DHT22;64199;48.578;-4.520;2023-10-31T01:05:07;23.30;57.20
75615;DHT22;64199;48.578;-4.520;2023-10-31T01:07:34;23.30;57.30
75615;DHT22;64199;48.578;-4.520;2023-10-31T01:09:59;23.30;57.40
75615;DHT22;64199;48.578;-4.520;2023-10-31T01:12:25;23.20;57.40
75615;DHT22;64199;48.578;-4.520;2023-10-31T01:14:53;23.20;57.50
75615;DHT22;64199;48.578;-4.520;2023-10-31T01:17:20;23.20;57.50
75615;DHT22;64199;48.578;-4.520;2023-10-31T01:19:45;23.20;57.50
75615;DHT22;64199;48.578;-4.520;2023-10-31T01:22:11;23.10;57.50
75615;DHT22;64199;48.578;-4.520;2023-10-31T01:24:37;23.10;57.60
75615;DHT22;64199;48.578;-4.520;2023-10-31T01:27:02;23.10;57.60
75615;DHT22;64199;48.578;-4.520;2023-10-31T01:29:28;23.00;57.60
75615;DHT22;64199;48.578;-4.520;2023-10-31T01:31:54;23.00;57.60
75615;DHT22;64199;48.578;-4.520;2023-10-31T01:34:20;23.00;57.60
75615;DHT22;64199;48.578;-4.520;2023-10-31T01:36:45;23.00;57.60
75615;DHT22;64199;48.578;-4.520;2023-10-31T01:39:11;23.00;57.70
75615;DHT22;64199;48.578;-4.520;2023-10-31T01:41:36;22.90;57.70
75615;DHT22;64199;48.578;-4.520;2023-10-31T01:44:02;22.90;57.80
75615;DHT22;64199;48.578;-4.520;2023-10-31T01:46:28;22.80;57.70
75615;DHT22;64199;48.578;-4.520;2023-10-31T01:48:53;22.90;58.40
75615;DHT22;64199;48.578;-4.520;2023-10-31T01:51:19;22.90;57.80
75615;DHT22;64199;48.578;-4.520;2023-10-31T01:53:45;22.80;57.70
75615;DHT22;64199;48.578;-4.520;2023-10-31T01:56:11;22.70;57.70
75615;DHT22;64199;48.578;-4.520;2023-10-31T01:58:38;22.80;57.80
75615;DHT22;64199;48.578;-4.520;2023-10-31T02:01:04;22.70;57.70
75615;DHT22;64199;48.578;-4.520;2023-10-31T02:03:30;22.70;57.80
75615;DHT22;64199;48.578;-4.520;2023-10-31T02:05:56;22.70;57.80
75615;DHT22;64199;48.578;-4.520;2023-10-31T02:08:22;22.70;57.80
75615;DHT22;64199;48.578;-4.520;2023-10-31T02:10:48;22.70;57.80
75615;DHT22;64199;48.578;-4.520;2023-10-31T02:13:14;22.60;57.80
75615;DHT22;64199;48.578;-4.520;2023-10-31T02:15:40;22.60;57.80
75615;DHT22;64199;48.578;-4.520;2023-10-31T02:18:05;22.60;58.50
75615;DHT22;64199;48.578;-4.520;2023-10-31T02:20:32;22.60;57.90
75615;DHT22;64199;48.578;-4.520;2023-10-31T02:22:58;22.60;57.90
75615;DHT22;64199;48.578;-4.520;2023-10-31T02:25:24;22.60;58.00
75615;DHT22;64199;48.578;-4.520;2023-10-31T02:27:50;22.50;58.00
75615;DHT22;64199;48.578;-4.520;2023-10-31T02:30:15;22.50;58.00
75615;DHT22;64199;48.578;-4.520;2023-10-31T02:32:41;22.50;58.10
75615;DHT22;64199;48.578;-4.520;2023-10-31T02:35:07;22.50;58.10
75615;DHT22;64199;48.578;-4.520;2023-10-31T02:37:33;22.50;58.10
75615;DHT22;64199;48.578;-4.520;2023-10-31T02:39:59;22.40;58.10
75615;DHT22;64199;48.578;-4.520;2023-10-31T02:42:26;22.40;58.10
75615;DHT22;64199;48.578;-4.520;2023-10-31T02:44:52;22.40;58.10
75615;DHT22;64199;48.578;-4.520;2023-10-31T02:47:17;22.40;58.10
75615;DHT22;64199;48.578;-4.520;2023-10-31T02:49:43;22.40;58.10
75615;DHT22;64199;48.578;-4.520;2023-10-31T02:52:09;22.40;58.20
75615;DHT22;64199;48.578;-4.520;2023-10-31T02:54:34;22.30;58.20
75615;DHT22;64199;48.578;-4.520;2023-10-31T02:57:00;22.30;58.20
75615;DHT22;64199;48.578;-4.520;2023-10-31T02:59:26;22.30;58.20
75615;DHT22;64199;48.578;-4.520;2023-10-31T03:01:52;22.20;58.20
75615;DHT22;64199;48.578;-4.520;2023-10-31T03:04:18;22.20;58.20
75615;DHT22;64199;48.578;-4.520;2023-10-31T03:06:44;22.20;58.30
75615;DHT22;64199;48.578;-4.520;2023-10-31T03:09:09;22.20;58.30
75615;DHT22;64199;48.578;-4.520;2023-10-31T03:11:35;22.20;58.30
75615;DHT22;64199;48.578;-4.520;2023-10-31T03:14:01;22.20;58.40
75615;DHT22;64199;48.578;-4.520;2023-10-31T03:16:26;22.10;58.30
75615;DHT22;64199;48.578;-4.520;2023-10-31T03:18:52;22.10;58.30
75615;DHT22;64199;48.578;-4.520;2023-10-31T03:21:18;22.10;58.40
75615;DHT22;64199;48.578;-4.520;2023-10-31T03:23:48;22.10;58.40
75615;DHT22;64199;48.578;-4.520;2023-10-31T03:26:14;22.10;58.50
75615;DHT22;64199;48.578;-4.520;2023-10-31T03:28:40;22.10;58.50
75615;DHT22;64199;48.578;-4.520;2023-10-31T03:31:06;22.10;58.50
75615;DHT22;64199;48.578;-4.520;2023-10-31T03:33:31;22.00;58.50
75615;DHT22;64199;48.578;-4.520;2023-10-31T03:35:57;22.00;58.50
75615;DHT22;64199;48.578;-4.520;2023-10-31T03:38:23;22.00;58.50
75615;DHT22;64199;48.578;-4.520;2023-10-31T03:40:49;22.00;58.50
75615;DHT22;64199;48.578;-4.520;2023-10-31T03:43:14;22.00;58.50
75615;DHT22;64199;48.578;-4.520;2023-10-31T03:45:40;22.00;58.50
75615;DHT22;64199;48.578;-4.520;2023-10-31T03:48:06;22.00;58.60
75615;DHT22;64199;48.578;-4.520;2023-10-31T03:50:31;21.90;58.60
75615;DHT22;64199;48.578;-4.520;2023-10-31T03:52:57;21.90;58.60
75615;DHT22;64199;48.578;-4.520;2023-10-31T03:55:23;21.90;58.70
75615;DHT22;64199;48.578;-4.520;2023-10-31T03:57:48;21.90;58.70
75615;DHT22;64199;48.578;-4.520;2023-10-31T04:00:14;21.90;58.70
75615;DHT22;64199;48.578;-4.520;2023-10-31T04:02:41;21.80;58.70
75615;DHT22;64199;48.578;-4.520;2023-10-31T04:05:07;21.80;58.70
75615;DHT22;64199;48.578;-4.520;2023-10-31T04:07:32;21.80;58.80
75615;DHT22;64199;48.578;-4.520;2023-10-31T04:09:58;21.80;58.80
75615;DHT22;64199;48.578;-4.520;2023-10-31T04:12:23;21.70;58.80
75615;DHT22;64199;48.578;-4.520;2023-10-31T04:14:49;21.70;58.70
75615;DHT22;64199;48.578;-4.520;2023-10-31T04:17:15;21.70;58.80
75615;DHT22;64199;48.578;-4.520;2023-10-31T04:19:40;21.70;58.80
75615;DHT22;64199;48.578;-4.520;2023-10-31T04:22:06;21.70;58.80
75615;DHT22;64199;48.578;-4.520;2023-10-31T04:24:32;21.70;58.80
75615;DHT22;64199;48.578;-4.520;2023-10-31T04:26:57;21.70;58.90
75615;DHT22;64199;48.578;-4.520;2023-10-31T04:29:23;21.60;58.90
75615;DHT22;64199;48.578;-4.520;2023-10-31T04:31:48;21.60;59.50
75615;DHT22;64199;48.578;-4.520;2023-10-31T04:34:14;21.60;59.00
75615;DHT22;64199;48.578;-4.520;2023-10-31T04:36:40;21.60;59.00
75615;DHT22;64199;48.578;-4.520;2023-10-31T04:39:06;21.60;58.90
75615;DHT22;64199;48.578;-4.520;2023-10-31T04:41:31;21.60;58.90
75615;DHT22;64199;48.578;-4.520;2023-10-31T04:43:57;21.70;59.00
75615;DHT22;64199;48.578;-4.520;2023-10-31T04:46:24;21.70;59.10
75615;DHT22;64199;48.578;-4.520;2023-10-31T04:48:52;21.70;59.00
75615;DHT22;64199;48.578;-4.520;2023-10-31T04:51:18;21.80;59.10
75615;DHT22;64199;48.578;-4.520;2023-10-31T04:53:44;21.80;59.10
75615;DHT22;64199;48.578;-4.520;2023-10-31T04:56:13;21.80;59.20
75615;DHT22;64199;48.578;-4.520;2023-10-31T04:58:39;21.80;59.20
75615;DHT22;64199;48.578;-4.520;2023-10-31T05:01:09;21.90;59.30
75615;DHT22;64199;48.578;-4.520;2023-10-31T05:03:34;21.90;59.40
75615;DHT22;64199;48.578;-4.520;2023-10-31T05:06:00;21.90;59.40
75615;DHT22;64199;48.578;-4.520;2023-10-31T05:08:26;21.90;59.50
75615;DHT22;64199;48.578;-4.520;2023-10-31T05:10:51;22.00;59.50
75615;DHT22;64199;48.578;-4.520;2023-10-31T05:13:17;22.00;59.60
75615;DHT22;64199;48.578;-4.520;2023-10-31T05:15:42;22.00;59.60
75615;DHT22;64199;48.578;-4.520;2023-10-31T05:18:08;22.10;59.70
75615;DHT22;64199;48.578;-4.520;2023-10-31T05:20:34;22.10;59.70
75615;DHT22;64199;48.578;-4.520;2023-10-31T05:22:59;22.10;59.70
75615;DHT22;64199;48.578;-4.520;2023-10-31T05:25:25;22.20;59.70
75615;DHT22;64199;48.578;-4.520;2023-10-31T05:27:51;22.20;59.60
75615;DHT22;64199;48.578;-4.520;2023-10-31T05:30:17;22.20;59.60
75615;DHT22;64199;48.578;-4.520;2023-10-31T05:32:43;22.20;59.60
75615;DHT22;64199;48.578;-4.520;2023-10-31T05:35:10;22.30;59.60
75615;DHT22;64199;48.578;-4.520;2023-10-31T05:37:36;22.30;59.60
75615;DHT22;64199;48.578;-4.520;2023-10-31T05:40:01;22.30;59.60
75615;DHT22;64199;48.578;-4.520;2023-10-31T05:42:27;22.40;59.60
75615;DHT22;64199;48.578;-4.520;2023-10-31T05:44:54;22.40;59.60
75615;DHT22;64199;48.578;-4.520;2023-10-31T05:47:20;22.40;59.60
75615;DHT22;64199;48.578;-4.520;2023-10-31T05:49:46;22.40;59.50
75615;DHT22;64199;48.578;-4.520;2023-10-31T05:52:11;22.40;59.50
75615;DHT22;64199;48.578;-4.520;2023-10-31T05:54:37;22.50;59.50
75615;DHT22;64199;48.578;-4.520;2023-10-31T05:57:03;22.50;59.50
75615;DHT22;64199;48.578;-4.520;2023-10-31T05:59:28;22.50;59.50
75615;DHT22;64199;48.578;-4.520;2023-10-31T06:01:54;22.50;59.50
75615;DHT22;64199;48.578;-4.520;2023-10-31T06:04:20;22.60;59.50
75615;DHT22;64199;48.578;-4.520;2023-10-31T06:06:46;22.60;59.50
75615;DHT22;64199;48.578;-4.520;2023-10-31T06:09:12;22.60;59.50
75615;DHT22;64199;48.578;-4.520;2023-10-31T06:11:40;22.60;59.50
75615;DHT22;64199;48.578;-4.520;2023-10-31T06:14:07;22.70;59.50
75615;DHT22;64199;48.578;-4.520;2023-10-31T06:16:39;22.70;59.50
75615;DHT22;64199;48.578;-4.520;2023-10-31T06:19:04;22.70;59.60
75615;DHT22;64199;48.578;-4.520;2023-10-31T06:21:30;22.70;59.50
75615;DHT22;64199;48.578;-4.520;2023-10-31T06:23:56;22.80;59.50
75615;DHT22;64199;48.578;-4.520;2023-10-31T06:26:22;22.80;59.50
75615;DHT22;64199;48.578;-4.520;2023-10-31T06:28:48;22.80;59.40
75615;DHT22;64199;48.578;-4.520;2023-10-31T06:31:14;22.80;59.40
75615;DHT22;64199;48.578;-4.520;2023-10-31T06:33:40;22.90;59.40
75615;DHT22;64199;48.578;-4.520;2023-10-31T06:36:06;22.90;59.40
75615;DHT22;64199;48.578;-4.520;2023-10-31T06:38:32;22.90;59.30
75615;DHT22;64199;48.578;-4.520;2023-10-31T06:40:58;22.90;59.20
75615;DHT22;64199;48.578;-4.520;2023-10-31T06:43:24;22.90;59.20
75615;DHT22;64199;48.578;-4.520;2023-10-31T06:45:50;22.90;59.10
75615;DHT22;64199;48.578;-4.520;2023-10-31T06:48:15;23.00;59.10
75615;DHT22;64199;48.578;-4.520;2023-10-31T06:50:41;23.00;59.50
75615;DHT22;64199;48.578;-4.520;2023-10-31T06:53:07;23.00;59.10
75615;DHT22;64199;48.578;-4.520;2023-10-31T06:55:32;23.00;59.10
75615;DHT22;64199;48.578;-4.520;2023-10-31T06:57:58;23.00;59.10
75615;DHT22;64199;48.578;-4.520;2023-10-31T07:00:24;23.00;59.10
75615;DHT22;64199;48.578;-4.520;2023-10-31T07:02:49;23.10;59.10
75615;DHT22;64199;48.578;-4.520;2023-10-31T07:05:15;23.20;59.20
75615;DHT22;64199;48.578;-4.520;2023-10-31T07:07:41;23.20;59.10
75615;DHT22;64199;48.578;-4.520;2023-10-31T07:10:07;23.20;59.10
75615;DHT22;64199;48.578;-4.520;2023-10-31T07:12:33;23.20;59.10
75615;DHT22;64199;48.578;-4.520;2023-10-31T07:14:58;23.20;59.00
75615;DHT22;64199;48.578;-4.520;2023-10-31T07:17:25;23.20;59.00
75615;DHT22;64199;48.578;-4.520;2023-10-31T07:19:50;23.30;59.10
75615;DHT22;64199;48.578;-4.520;2023-10-31T07:22:16;23.20;59.00
75615;DHT22;64199;48.578;-4.520;2023-10-31T07:24:42;23.30;59.00
75615;DHT22;64199;48.578;-4.520;2023-10-31T07:27:08;23.30;59.00
75615;DHT22;64199;48.578;-4.520;2023-10-31T07:29:34;23.30;59.60
75615;DHT22;64199;48.578;-4.520;2023-10-31T07:32:00;23.40;59.00
75615;DHT22;64199;48.578;-4.520;2023-10-31T07:34:25;23.40;58.90
75615;DHT22;64199;48.578;-4.520;2023-10-31T07:36:51;23.40;58.90
75615;DHT22;64199;48.578;-4.520;2023-10-31T07:39:17;23.40;58.80
75615;DHT22;64199;48.578;-4.520;2023-10-31T07:41:42;23.40;58.70
75615;DHT22;64199;48.578;-4.520;2023-10-31T07:44:08;23.40;58.70
75615;DHT22;64199;48.578;-4.520;2023-10-31T07:46:33;23.40;58.70
75615;DHT22;64199;48.578;-4.520;2023-10-31T07:49:00;23.40;58.70
75615;DHT22;64199;48.578;-4.520;2023-10-31T07:51:25;23.40;58.60
75615;DHT22;64199;48.578;-4.520;2023-10-31T07:53:51;23.50;58.60
75615;DHT22;64199;48.578;-4.520;2023-10-31T07:56:17;23.50;58.60
75615;DHT22;64199;48.578;-4.520;2023-10-31T07:58:43;23.50;58.60
75615;DHT22;64199;48.578;-4.520;2023-10-31T08:01:09;23.60;58.70
75615;DHT22;64199;48.578;-4.520;2023-10-31T08:03:38;23.50;58.60
75615;DHT22;64199;48.578;-4.520;2023-10-31T08:06:04;23.60;58.60
75615;DHT22;64199;48.578;-4.520;2023-10-31T08:08:30;23.60;58.60
75615;DHT22;64199;48.578;-4.520;2023-10-31T08:10:56;23.60;58.60
75615;DHT22;64199;48.578;-4.520;2023-10-31T08:13:23;23.60;58.60
75615;DHT22;64199;48.578;-4.520;2023-10-31T08:15:49;23.70;58.60
75615;DHT22;64199;48.578;-4.520;2023-10-31T08:18:15;23.70;59.20
75615;DHT22;64199;48.578;-4.520;2023-10-31T08:20:41;23.70;58.60
75615;DHT22;64199;48.578;-4.520;2023-10-31T08:23:08;23.70;58.60
75615;DHT22;64199;48.578;-4.520;2023-10-31T08:25:34;23.70;58.60
75615;DHT22;64199;48.578;-4.520;2023-10-31T08:28:00;23.70;58.60
75615;DHT22;64199;48.578;-4.520;2023-10-31T08:30:25;23.70;58.50
75615;DHT22;64199;48.578;-4.520;2023-10-31T08:32:51;23.80;58.60
75615;DHT22;64199;48.578;-4.520;2023-10-31T08:35:16;23.80;58.50
75615;DHT22;64199;48.578;-4.520;2023-10-31T08:37:42;23.80;58.50
75615;DHT22;64199;48.578;-4.520;2023-10-31T08:40:08;23.80;58.50
75615;DHT22;64199;48.578;-4.520;2023-10-31T08:42:33;23.80;58.40
75615;DHT22;64199;48.578;-4.520;2023-10-31T08:44:59;23.80;58.40
75615;DHT22;64199;48.578;-4.520;2023-10-31T08:47:25;23.90;58.30
75615;DHT22;64199;48.578;-4.520;2023-10-31T08:49:50;23.90;58.40
75615;DHT22;64199;48.578;-4.520;2023-10-31T08:52:16;23.90;58.30
75615;DHT22;64199;48.578;-4.520;2023-10-31T08:54:43;23.90;58.30
75615;DHT22;64199;48.578;-4.520;2023-10-31T08:57:08;23.90;58.20
75615;DHT22;64199;48.578;-4.520;2023-10-31T08:59:34;23.90;58.20
75615;DHT22;64199;48.578;-4.520;2023-10-31T09:02:01;23.90;58.10
75615;DHT22;64199;48.578;-4.520;2023-10-31T09:04:26;24.00;58.20
75615;DHT22;64199;48.578;-4.520;2023-10-31T09:06:52;24.00;58.10
75615;DHT22;64199;48.578;-4.520;2023-10-31T09:09:17;24.00;58.10
75615;DHT22;64199;48.578;-4.520;2023-10-31T09:11:43;24.00;58.10
75615;DHT22;64199;48.578;-4.520;2023-10-31T09:14:09;24.00;58.10
75615;DHT22;64199;48.578;-4.520;2023-10-31T09:16:35;24.00;58.00
75615;DHT22;64199;48.578;-4.520;2023-10-31T09:19:00;24.00;58.10
75615;DHT22;64199;48.578;-4.520;2023-10-31T09:21:26;24.00;58.10
75615;DHT22;64199;48.578;-4.520;2023-10-31T09:23:52;24.00;58.10
75615;DHT22;64199;48.578;-4.520;2023-10-31T09:26:17;23.90;58.00
75615;DHT22;64199;48.578;-4.520;2023-10-31T09:28:43;23.90;58.00
75615;DHT22;64199;48.578;-4.520;2023-10-31T09:31:17;23.90;57.90
75615;DHT22;64199;48.578;-4.520;2023-10-31T09:33:43;23.90;57.80
75615;DHT22;64199;48.578;-4.520;2023-10-31T09:36:09;23.80;57.70
75615;DHT22;64199;48.578;-4.520;2023-10-31T09:38:35;23.80;57.70
75615;DHT22;64199;48.578;-4.520;2023-10-31T09:41:01;23.80;57.60
75615;DHT22;64199;48.578;-4.520;2023-10-31T09:43:26;23.70;57.60
75615;DHT22;64199;48.578;-4.520;2023-10-31T09:45:52;23.70;57.50
75615;DHT22;64199;48.578;-4.520;2023-10-31T09:48:19;23.70;57.50
75615;DHT22;64199;48.578;-4.520;2023-10-31T09:50:45;23.70;57.40
75615;DHT22;64199;48.578;-4.520;2023-10-31T09:53:11;23.60;57.40
75615;DHT22;64199;48.578;-4.520;2023-10-31T09:55:37;23.60;57.40
75615;DHT22;64199;48.578;-4.520;2023-10-31T09:58:04;23.60;57.30
75615;DHT22;64199;48.578;-4.520;2023-10-31T10:00:29;23.50;57.30
75615;DHT22;64199;48.578;-4.520;2023-10-31T10:02:55;23.50;57.30
75615;DHT22;64199;48.578;-4.520;2023-10-31T10:05:20;23.50;57.30
75615;DHT22;64199;48.578;-4.520;2023-10-31T10:07:48;23.50;57.30
75615;DHT22;64199;48.578;-4.520;2023-10-31T10:10:15;23.40;57.30
75615;DHT22;64199;48.578;-4.520;2023-10-31T10:12:42;23.40;57.30
75615;DHT22;64199;48.578;-4.520;2023-10-31T10:15:08;23.40;57.30
75615;DHT22;64199;48.578;-4.520;2023-10-31T10:17:35;23.40;57.30
75615;DHT22;64199;48.578;-4.520;2023-10-31T10:20:10;23.40;57.30
75615;DHT22;64199;48.578;-4.520;2023-10-31T10:22:36;23.30;57.20
75615;DHT22;64199;48.578;-4.520;2023-10-31T10:25:04;23.30;57.20
75615;DHT22;64199;48.578;-4.520;2023-10-31T10:27:29;23.20;57.20
75615;DHT22;64199;48.578;-4.520;2023-10-31T10:29:55;23.30;57.30
75615;DHT22;64199;48.578;-4.520;2023-10-31T10:32:21;23.20;57.20
75615;DHT22;64199;48.578;-4.520;2023-10-31T10:34:46;23.20;57.30
75615;DHT22;64199;48.578;-4.520;2023-10-31T10:37:12;23.20;57.30
75615;DHT22;64199;48.578;-4.520;2023-10-31T10:39:38;23.20;57.40
75615;DHT22;64199;48.578;-4.520;2023-10-31T10:42:07;23.10;57.40
75615;DHT22;64199;48.578;-4.520;2023-10-31T10:44:34;23.10;57.40
75615;DHT22;64199;48.578;-4.520;2023-10-31T10:47:04;23.00;57.40
75615;DHT22;64199;48.578;-4.520;2023-10-31T10:49:34;23.10;57.50
75615;DHT22;64199;48.578;-4.520;2023-10-31T10:52:04;23.10;57.60
75615;DHT22;64199;48.578;-4.520;2023-10-31T10:54:35;23.00;57.60
75615;DHT22;64199;48.578;-4.520;2023-10-31T10:57:10;23.00;57.60
75615;DHT22;64199;48.578;-4.520;2023-10-31T10:59:43;23.00;57.60
75615;DHT22;64199;48.578;-4.520;2023-10-31T11:02:16;23.00;57.60
75615;DHT22;64199;48.578;-4.520;2023-10-31T11:04:43;23.00;57.60
75615;DHT22;64199;48.578;-4.520;2023-10-31T11:07:09;22.90;57.70
75615;DHT22;64199;48.578;-4.520;2023-10-31T11:09:35;22.90;57.70
75615;DHT22;64199;48.578;-4.520;2023-10-31T11:12:01;22.90;57.80
75615;DHT22;64199;48.578;-4.520;2023-10-31T11:14:27;22.90;57.80
75615;DHT22;64199;48.578;-4.520;2023-10-31T11:16:55;22.90;57.90
75615;DHT22;64199;48.578;-4.520;2023-10-31T11:19:22;22.80;57.80
75615;DHT22;64199;48.578;-4.520;2023-10-31T11:21:55;22.80;57.90
75615;DHT22;64199;48.578;-4.520;2023-10-31T11:24:21;22.80;57.90
75615;DHT22;64199;48.578;-4.520;2023-10-31T11:26:51;22.80;58.00
75615;DHT22;64199;48.578;-4.520;2023-10-31T11:29:17;22.80;58.00
75615;DHT22;64199;48.578;-4.520;2023-10-31T11:31:43;22.70;57.90
75615;DHT22;64199;48.578;-4.520;2023-10-31T11:34:09;22.70;58.00
75615;DHT22;64199;48.578;-4.520;2023-10-31T11:36:35;22.70;58.00
75615;DHT22;64199;48.578;-4.520;2023-10-31T11:39:11;22.70;58.00
75615;DHT22;64199;48.578;-4.520;2023-10-31T11:41:38;22.70;58.00
75615;DHT22;64199;48.578;-4.520;2023-10-31T11:44:04;22.70;58.00
75615;DHT22;64199;48.578;-4.520;2023-10-31T11:46:32;22.70;58.10
75615;DHT22;64199;48.578;-4.520;2023-10-31T11:48:58;22.60;58.10
75615;DHT22;64199;48.578;-4.520;2023-10-31T11:51:25;22.60;58.20
75615;DHT22;64199;48.578;-4.520;2023-10-31T11:53:51;22.60;58.20
75615;DHT22;64199;48.578;-4.520;2023-10-31T11:56:17;22.60;58.20
75615;DHT22;64199;48.578;-4.520;2023-10-31T11:58:43;22.60;58.20
75615;DHT22;64199;48.578;-4.520;2023-10-31T12:01:09;22.60;58.30
75615;DHT22;64199;48.578;-4.520;2023-10-31T12:03:41;22.60;58.40
75615;DHT22;64199;48.578;-4.520;2023-10-31T12:06:07;22.50;58.40
75615;DHT22;64199;48.578;-4.520;2023-10-31T12:08:37;22.50;58.40
75615;DHT22;64199;48.578;-4.520;2023-10-31T12:13:32;22.50;58.50
75615;DHT22;64199;48.578;-4.520;2023-10-31T12:16:00;22.50;58.50
75615;DHT22;64199;48.578;-4.520;2023-10-31T12:18:28;22.50;58.50
75615;DHT22;64199;48.578;-4.520;2023-10-31T12:20:54;22.40;58.50
75615;DHT22;64199;48.578;-4.520;2023-10-31T12:23:20;22.40;58.50
75615;DHT22;64199;48.578;-4.520;2023-10-31T12:25:52;22.40;58.60
75615;DHT22;64199;48.578;-4.520;2023-10-31T12:28:18;22.40;58.60
75615;DHT22;64199;48.578;-4.520;2023-10-31T12:30:44;22.40;58.70
75615;DHT22;64199;48.578;-4.520;2023-10-31T12:33:12;22.40;58.70
75615;DHT22;64199;48.578;-4.520;2023-10-31T12:35:37;22.40;58.70
75615;DHT22;64199;48.578;-4.520;2023-10-31T12:38:03;22.30;58.70
75615;DHT22;64199;48.578;-4.520;2023-10-31T12:40:29;22.30;58.80
75615;DHT22;64199;48.578;-4.520;2023-10-31T12:42:55;22.30;58.80
75615;DHT22;64199;48.578;-4.520;2023-10-31T12:45:20;22.30;58.80
75615;DHT22;64199;48.578;-4.520;2023-10-31T12:47:59;22.30;58.80
75615;DHT22;64199;48.578;-4.520;2023-10-31T12:50:26;22.30;58.90
75615;DHT22;64199;48.578;-4.520;2023-10-31T12:52:54;22.20;58.90
75615;DHT22;64199;48.578;-4.520;2023-10-31T12:55:21;22.20;58.90
75615;DHT22;64199;48.578;-4.520;2023-10-31T12:57:47;22.20;58.90
75615;DHT22;64199;48.578;-4.520;2023-10-31T13:00:16;22.20;59.00
75615;DHT22;64199;48.578;-4.520;2023-10-31T13:02:44;22.20;59.00
75615;DHT22;64199;48.578;-4.520;2023-10-31T13:05:13;22.20;59.00
75615;DHT22;64199;48.578;-4.520;2023-10-31T13:07:39;22.20;59.00
75615;DHT22;64199;48.578;-4.520;2023-10-31T13:10:06;22.10;59.00
75615;DHT22;64199;48.578;-4.520;2023-10-31T13:12:33;22.10;59.00
75615;DHT22;64199;48.578;-4.520;2023-10-31T13:14:58;22.10;59.00
75615;DHT22;64199;48.578;-4.520;2023-10-31T13:17:24;22.10;59.10
75615;DHT22;64199;48.578;-4.520;2023-10-31T13:19:50;22.10;59.10
75615;DHT22;64199;48.578;-4.520;2023-10-31T13:22:15;22.10;59.00
75615;DHT22;64199;48.578;-4.520;2023-10-31T13:24:41;22.10;59.00
75615;DHT22;64199;48.578;-4.520;2023-10-31T13:27:08;22.10;59.00
75615;DHT22;64199;48.578;-4.520;2023-10-31T13:29:33;22.10;59.00
75615;DHT22;64199;48.578;-4.520;2023-10-31T13:31:59;22.10;59.00
75615;DHT22;64199;48.578;-4.520;2023-10-31T13:34:25;22.10;59.00
75615;DHT22;64199;48.578;-4.520;2023-10-31T13:36:50;22.10;59.10
75615;DHT22;64199;48.578;-4.520;2023-10-31T13:39:17;22.00;59.00
75615;DHT22;64199;48.578;-4.520;2023-10-31T13:41:43;22.00;59.10
75615;DHT22;64199;48.578;-4.520;2023-10-31T13:44:09;22.00;59.10
75615;DHT22;64199;48.578;-4.520;2023-10-31T13:46:34;22.00;59.10
75615;DHT22;64199;48.578;-4.520;2023-10-31T13:49:00;22.00;59.10
75615;DHT22;64199;48.578;-4.520;2023-10-31T13:51:26;22.00;59.20
75615;DHT22;64199;48.578;-4.520;2023-10-31T13:53:52;22.00;59.20
75615;DHT22;64199;48.578;-4.520;2023-10-31T13:56:20;22.00;59.20
75615;DHT22;64199;48.578;-4.520;2023-10-31T13:58:46;21.90;59.20
75615;DHT22;64199;48.578;-4.520;2023-10-31T14:01:12;21.90;59.20
75615;DHT22;64199;48.578;-4.520;2023-10-31T14:03:40;21.90;59.30
75615;DHT22;64199;48.578;-4.520;2023-10-31T14:06:06;21.90;59.30
75615;DHT22;64199;48.578;-4.520;2023-10-31T14:08:32;21.90;59.30
75615;DHT22;64199;48.578;-4.520;2023-10-31T14:10:57;21.90;59.30
75615;DHT22;64199;48.578;-4.520;2023-10-31T14:13:23;21.90;59.30
75615;DHT22;64199;48.578;-4.520;2023-10-31T14:15:49;21.90;59.30
75615;DHT22;64199;48.578;-4.520;2023-10-31T14:18:15;21.80;59.20
75615;DHT22;64199;48.578;-4.520;2023-10-31T14:20:41;21.80;59.20
75615;DHT22;64199;48.578;-4.520;2023-10-31T14:23:07;21.80;59.10
75615;DHT22;64199;48.578;-4.520;2023-10-31T14:25:33;21.80;59.10
75615;DHT22;64199;48.578;-4.520;2023-10-31T14:27:58;21.80;59.10
75615;DHT22;64199;48.578;-4.520;2023-10-31T14:30:24;21.80;59.10
75615;DHT22;64199;48.578;-4.520;2023-10-31T14:32:51;21.90;59.20
75615;DHT22;64199;48.578;-4.520;2023-10-31T14:35:16;21.90;59.20
75615;DHT22;64199;48.578;-4.520;2023-10-31T14:37:42;21.90;59.20
75615;DHT22;64199;48.578;-4.520;2023-10-31T14:40:09;22.00;59.30
75615;DHT22;64199;48.578;-4.520;2023-10-31T14:42:34;21.90;59.20
75615;DHT22;64199;48.578;-4.520;2023-10-31T14:45:00;22.00;59.40
75615;DHT22;64199;48.578;-4.520;2023-10-31T14:47:26;22.00;59.40
75615;DHT22;64199;48.578;-4.520;2023-10-31T14:49:51;22.10;59.50
75615;DHT22;64199;48.578;-4.520;2023-10-31T14:52:17;22.10;59.40
75615;DHT22;64199;48.578;-4.520;2023-10-31T14:54:43;22.10;59.40
75615;DHT22;64199;48.578;-4.520;2023-10-31T14:57:09;22.10;59.70
75615;DHT22;64199;48.578;-4.520;2023-10-31T14:59:34;22.20;59.40
75615;DHT22;64199;48.578;-4.520;2023-10-31T15:02:00;22.20;59.40
75615;DHT22;64199;48.578;-4.520;2023-10-31T15:04:26;22.20;59.40
75615;DHT22;64199;48.578;-4.520;2023-10-31T15:06:52;22.30;59.40
75615;DHT22;64199;48.578;-4.520;2023-10-31T15:09:18;22.30;59.40
75615;DHT22;64199;48.578;-4.520;2023-10-31T15:11:44;22.30;59.40